sensor_id;sensor_type;location;lat;lon;timestamp;temperature;humidity
2539;DHT22;1280;49.760;9.664;2023-04-24T00:00:18;14.60;76.50
2539;DHT22;1280;49.760;9.664;2023-04-24T00:02:58;14.60;76.50
2539;DHT22;1280;49.760;9.664;2023-04-24T00:05:40;14.60;76.50
2539;DHT22;1280;49.760;9.664;2023-04-24T00:08:16;14.60;76.40
2539;DHT22;1280;49.760;9.664;2023-04-24T00:10:49;14.60;76.40
2539;DHT22;1280;49.760;9.664;2023-04-24T00:13:26;14.60;76.30
2539;DHT22;1280;49.760;9.664;2023-04-24T00:16:07;14.60;76.30
2539;DHT22;1280;49.760;9.664;2023-04-24T00:18:39;14.60;76.20
2539;DHT22;1280;49.760;9.664;2023-04-24T00:21:22;14.60;76.20
2539;DHT22;1280;49.760;9.664;2023-04-24T00:23:55;14.60;76.10
2539;DHT22;1280;49.760;9.664;2023-04-24T00:26:29;14.60;76.10
2539;DHT22;1280;49.760;9.664;2023-04-24T00:29:01;14.60;76.00
2539;DHT22;1280;49.760;9.664;2023-04-24T00:31:39;14.60;76.00
2539;DHT22;1280;49.760;9.664;2023-04-24T00:34:09;14.50;75.90
2539;DHT22;1280;49.760;9.664;2023-04-24T00:36:54;14.50;75.90
2539;DHT22;1280;49.760;9.664;2023-04-24T00:39:29;14.50;75.90
2539;DHT22;1280;49.760;9.664;2023-04-24T00:41:59;14.50;75.90
2539;DHT22;1280;49.760;9.664;2023-04-24T00:44:40;14.50;75.90
2539;DHT22;1280;49.760;9.664;2023-04-24T00:47:09;14.50;75.90
2539;DHT22;1280;49.760;9.664;2023-04-24T00:49:49;14.50;75.80
2539;DHT22;1280;49.760;9.664;2023-04-24T00:52:28;14.50;75.80
2539;DHT22;1280;49.760;9.664;2023-04-24T00:55:02;14.50;75.80
2539;DHT22;1280;49.760;9.664;2023-04-24T00:57:40;14.40;75.80
2539;DHT22;1280;49.760;9.664;2023-04-24T01:00:15;14.40;75.80
2539;DHT22;1280;49.760;9.664;2023-04-24T01:02:55;14.40;75.80
2539;DHT22;1280;49.760;9.664;2023-04-24T01:05:35;14.40;75.80
2539;DHT22;1280;49.760;9.664;2023-04-24T01:08:11;14.30;75.90
2539;DHT22;1280;49.760;9.664;2023-04-24T01:10:41;14.40;75.90
2539;DHT22;1280;49.760;9.664;2023-04-24T01:13:15;14.40;75.90
2539;DHT22;1280;49.760;9.664;2023-04-24T01:15:48;14.40;75.90
2539;DHT22;1280;49.760;9.664;2023-04-24T01:18:21;14.30;75.90
2539;DHT22;1280;49.760;9.664;2023-04-24T01:21:04;14.30;75.90
2539;DHT22;1280;49.760;9.664;2023-04-24T01:23:44;14.30;75.80
2539;DHT22;1280;49.760;9.664;2023-04-24T01:26:19;14.30;75.80
2539;DHT22;1280;49.760;9.664;2023-04-24T01:28:54;14.30;75.80
2539;DHT22;1280;49.760;9.664;2023-04-24T01:31:33;14.30;75.80
2539;DHT22;1280;49.760;9.664;2023-04-24T01:34:06;14.40;75.80
2539;DHT22;1280;49.760;9.664;2023-04-24T01:36:50;14.40;75.70
2539;DHT22;1280;49.760;9.664;2023-04-24T01:39:40;14.40;75.60
2539;DHT22;1280;49.760;9.664;2023-04-24T01:42:13;14.30;75.60
2539;DHT22;1280;49.760;9.664;2023-04-24T01:44:47;14.30;75.60
2539;DHT22;1280;49.760;9.664;2023-04-24T01:47:16;14.30;75.60
2539;DHT22;1280;49.760;9.664;2023-04-24T01:49:46;14.30;75.60
2539;DHT22;1280;49.760;9.664;2023-04-24T01:52:18;14.30;75.60
2539;DHT22;1280;49.760;9.664;2023-04-24T01:54:54;14.30;75.50
2539;DHT22;1280;49.760;9.664;2023-04-24T01:57:33;14.40;75.60
2539;DHT22;1280;49.760;9.664;2023-04-24T02:00:10;14.30;75.50
2539;DHT22;1280;49.760;9.664;2023-04-24T02:02:46;14.30;75.50
2539;DHT22;1280;49.760;9.664;2023-04-24T02:05:18;14.30;75.50
2539;DHT22;1280;49.760;9.664;2023-04-24T02:07:49;14.30;75.50
2539;DHT22;1280;49.760;9.664;2023-04-24T02:10:34;14.20;75.50
2539;DHT22;1280;49.760;9.664;2023-04-24T02:13:13;14.30;75.50
2539;DHT22;1280;49.760;9.664;2023-04-24T02:15:59;14.30;75.50
2539;DHT22;1280;49.760;9.664;2023-04-24T02:18:35;14.30;75.50
2539;DHT22;1280;49.760;9.664;2023-04-24T02:21:16;14.30;75.50
2539;DHT22;1280;49.760;9.664;2023-04-24T02:23:55;14.20;75.50
2539;DHT22;1280;49.760;9.664;2023-04-24T02:26:39;14.20;75.50
2539;DHT22;1280;49.760;9.664;2023-04-24T02:29:14;14.30;75.50
2539;DHT22;1280;49.760;9.664;2023-04-24T02:31:51;14.20;75.50
2539;DHT22;1280;49.760;9.664;2023-04-24T02:34:23;14.20;75.40
2539;DHT22;1280;49.760;9.664;2023-04-24T02:36:57;14.20;75.40
2539;DHT22;1280;49.760;9.664;2023-04-24T02:39:33;14.20;75.50
2539;DHT22;1280;49.760;9.664;2023-04-24T02:42:10;14.20;75.50
2539;DHT22;1280;49.760;9.664;2023-04-24T02:44:47;14.20;75.50
2539;DHT22;1280;49.760;9.664;2023-04-24T02:47:28;14.20;75.50
2539;DHT22;1280;49.760;9.664;2023-04-24T02:50:02;14.20;75.60
2539;DHT22;1280;49.760;9.664;2023-04-24T02:52:38;14.20;75.60
2539;DHT22;1280;49.760;9.664;2023-04-24T02:55:12;14.30;75.60
2539;DHT22;1280;49.760;9.664;2023-04-24T02:58:02;14.20;75.50
2539;DHT22;1280;49.760;9.664;2023-04-24T03:00:37;14.20;75.50
2539;DHT22;1280;49.760;9.664;2023-04-24T03:03:11;14.20;75.50
2539;DHT22;1280;49.760;9.664;2023-04-24T03:05:50;14.20;75.50
2539;DHT22;1280;49.760;9.664;2023-04-24T03:08:23;14.20;75.50
2539;DHT22;1280;49.760;9.664;2023-04-24T03:10:58;14.20;75.50
2539;DHT22;1280;49.760;9.664;2023-04-24T03:13:33;14.20;75.50
2539;DHT22;1280;49.760;9.664;2023-04-24T03:16:03;14.20;75.50
2539;DHT22;1280;49.760;9.664;2023-04-24T03:18:42;14.10;75.50
2539;DHT22;1280;49.760;9.664;2023-04-24T03:21:22;14.10;75.60
2539;DHT22;1280;49.760;9.664;2023-04-24T03:23:58;14.10;75.60
2539;DHT22;1280;49.760;9.664;2023-04-24T03:26:36;14.10;75.60
2539;DHT22;1280;49.760;9.664;2023-04-24T03:29:40;14.10;75.60
2539;DHT22;1280;49.760;9.664;2023-04-24T03:32:28;14.10;75.70
2539;DHT22;1280;49.760;9.664;2023-04-24T03:35:11;14.10;75.60
2539;DHT22;1280;49.760;9.664;2023-04-24T03:37:48;14.10;75.60
2539;DHT22;1280;49.760;9.664;2023-04-24T03:40:37;14.10;75.60
2539;DHT22;1280;49.760;9.664;2023-04-24T03:43:17;14.10;75.50
2539;DHT22;1280;49.760;9.664;2023-04-24T03:46:02;14.10;75.40
2539;DHT22;1280;49.760;9.664;2023-04-24T03:48:37;14.10;75.50
2539;DHT22;1280;49.760;9.664;2023-04-24T03:51:11;14.00;75.50
2539;DHT22;1280;49.760;9.664;2023-04-24T03:53:47;14.00;75.50
2539;DHT22;1280;49.760;9.664;2023-04-24T03:56:22;14.00;75.50
2539;DHT22;1280;49.760;9.664;2023-04-24T03:58:57;14.00;75.50
2539;DHT22;1280;49.760;9.664;2023-04-24T04:01:29;14.00;75.50
2539;DHT22;1280;49.760;9.664;2023-04-24T04:04:08;14.00;75.60
2539;DHT22;1280;49.760;9.664;2023-04-24T04:06:47;14.00;75.50
2539;DHT22;1280;49.760;9.664;2023-04-24T04:09:19;14.10;75.50
2539;DHT22;1280;49.760;9.664;2023-04-24T04:11:54;14.00;75.50
2539;DHT22;1280;49.760;9.664;2023-04-24T04:14:35;14.10;75.40
2539;DHT22;1280;49.760;9.664;2023-04-24T04:17:29;14.10;75.40
2539;DHT22;1280;49.760;9.664;2023-04-24T04:20:08;14.10;75.50
2539;DHT22;1280;49.760;9.664;2023-04-24T04:22:40;14.10;75.50
2539;DHT22;1280;49.760;9.664;2023-04-24T04:25:16;14.10;75.50
2539;DHT22;1280;49.760;9.664;2023-04-24T04:27:47;14.00;75.60
2539;DHT22;1280;49.760;9.664;2023-04-24T04:30:19;14.00;75.60
2539;DHT22;1280;49.760;9.664;2023-04-24T04:33:06;14.00;75.60
2539;DHT22;1280;49.760;9.664;2023-04-24T04:35:42;14.00;75.70
2539;DHT22;1280;49.760;9.664;2023-04-24T04:38:14;14.00;75.90
2539;DHT22;1280;49.760;9.664;2023-04-24T04:40:50;13.90;75.80
2539;DHT22;1280;49.760;9.664;2023-04-24T04:43:30;13.80;75.90
2539;DHT22;1280;49.760;9.664;2023-04-24T04:46:10;13.80;75.90
2539;DHT22;1280;49.760;9.664;2023-04-24T04:49:04;13.80;75.90
2539;DHT22;1280;49.760;9.664;2023-04-24T04:51:40;13.70;75.90
2539;DHT22;1280;49.760;9.664;2023-04-24T04:54:15;13.70;75.90
2539;DHT22;1280;49.760;9.664;2023-04-24T04:56:53;13.70;75.90
2539;DHT22;1280;49.760;9.664;2023-04-24T04:59:25;13.60;75.80
2539;DHT22;1280;49.760;9.664;2023-04-24T05:02:09;13.60;75.90
2539;DHT22;1280;49.760;9.664;2023-04-24T05:04:59;13.50;75.90
2539;DHT22;1280;49.760;9.664;2023-04-24T05:07:34;13.50;75.90
2539;DHT22;1280;49.760;9.664;2023-04-24T05:10:15;13.50;76.00
2539;DHT22;1280;49.760;9.664;2023-04-24T05:12:49;13.50;76.00
2539;DHT22;1280;49.760;9.664;2023-04-24T05:15:23;13.50;76.00
2539;DHT22;1280;49.760;9.664;2023-04-24T05:17:57;13.50;76.00
2539;DHT22;1280;49.760;9.664;2023-04-24T05:20:39;13.50;75.90
2539;DHT22;1280;49.760;9.664;2023-04-24T05:23:20;13.50;75.80
2539;DHT22;1280;49.760;9.664;2023-04-24T05:26:02;13.50;75.80
2539;DHT22;1280;49.760;9.664;2023-04-24T05:28:39;13.40;75.70
2539;DHT22;1280;49.760;9.664;2023-04-24T05:31:18;13.40;75.80
2539;DHT22;1280;49.760;9.664;2023-04-24T05:33:52;13.50;76.30
2539;DHT22;1280;49.760;9.664;2023-04-24T05:36:30;13.60;75.70
2539;DHT22;1280;49.760;9.664;2023-04-24T05:39:04;13.60;75.50
2539;DHT22;1280;49.760;9.664;2023-04-24T05:41:36;13.70;75.80
2539;DHT22;1280;49.760;9.664;2023-04-24T05:44:10;14.10;77.30
2539;DHT22;1280;49.760;9.664;2023-04-24T05:46:48;14.50;75.30
2539;DHT22;1280;49.760;9.664;2023-04-24T05:49:18;15.00;77.30
2539;DHT22;1280;49.760;9.664;2023-04-24T05:52:01;16.30;76.70
2539;DHT22;1280;49.760;9.664;2023-04-24T05:54:40;16.90;72.50
2539;DHT22;1280;49.760;9.664;2023-04-24T05:57:13;16.70;70.90
2539;DHT22;1280;49.760;9.664;2023-04-24T05:59:52;16.30;70.30
2539;DHT22;1280;49.760;9.664;2023-04-24T06:02:25;15.80;70.50
2539;DHT22;1280;49.760;9.664;2023-04-24T06:04:55;15.40;70.70
2539;DHT22;1280;49.760;9.664;2023-04-24T06:07:29;15.10;70.80
2539;DHT22;1280;49.760;9.664;2023-04-24T06:09:59;14.80;71.10
2539;DHT22;1280;49.760;9.664;2023-04-24T06:12:44;14.50;71.20
2539;DHT22;1280;49.760;9.664;2023-04-24T06:15:19;14.30;71.40
2539;DHT22;1280;49.760;9.664;2023-04-24T06:18:06;14.20;71.50
2539;DHT22;1280;49.760;9.664;2023-04-24T06:20:39;14.10;71.70
2539;DHT22;1280;49.760;9.664;2023-04-24T06:23:13;13.90;71.80
2539;DHT22;1280;49.760;9.664;2023-04-24T06:25:44;13.90;71.80
2539;DHT22;1280;49.760;9.664;2023-04-24T06:28:13;13.80;71.80
2539;DHT22;1280;49.760;9.664;2023-04-24T06:30:42;13.70;71.80
2539;DHT22;1280;49.760;9.664;2023-04-24T06:33:12;13.60;71.90
2539;DHT22;1280;49.760;9.664;2023-04-24T06:35:49;13.60;72.00
2539;DHT22;1280;49.760;9.664;2023-04-24T06:38:28;13.60;72.00
2539;DHT22;1280;49.760;9.664;2023-04-24T06:41:01;13.60;72.10
2539;DHT22;1280;49.760;9.664;2023-04-24T06:43:38;13.70;72.10
2539;DHT22;1280;49.760;9.664;2023-04-24T06:46:07;13.70;72.10
2539;DHT22;1280;49.760;9.664;2023-04-24T06:48:41;13.70;72.10
2539;DHT22;1280;49.760;9.664;2023-04-24T06:51:12;13.70;72.00
2539;DHT22;1280;49.760;9.664;2023-04-24T06:53:42;13.70;72.00
2539;DHT22;1280;49.760;9.664;2023-04-24T06:56:16;13.70;72.00
2539;DHT22;1280;49.760;9.664;2023-04-24T06:58:46;13.80;72.10
2539;DHT22;1280;49.760;9.664;2023-04-24T07:01:17;13.80;72.00
2539;DHT22;1280;49.760;9.664;2023-04-24T07:03:49;13.90;72.00
2539;DHT22;1280;49.760;9.664;2023-04-24T07:06:26;13.90;71.90
2539;DHT22;1280;49.760;9.664;2023-04-24T07:09:02;13.90;71.90
2539;DHT22;1280;49.760;9.664;2023-04-24T07:11:33;13.90;71.90
2539;DHT22;1280;49.760;9.664;2023-04-24T07:14:06;13.90;71.80
2539;DHT22;1280;49.760;9.664;2023-04-24T07:16:36;13.90;71.70
2539;DHT22;1280;49.760;9.664;2023-04-24T07:19:08;13.90;71.60
2539;DHT22;1280;49.760;9.664;2023-04-24T07:21:40;13.90;71.60
2539;DHT22;1280;49.760;9.664;2023-04-24T07:24:18;14.00;71.70
2539;DHT22;1280;49.760;9.664;2023-04-24T07:26:51;14.00;71.90
2539;DHT22;1280;49.760;9.664;2023-04-24T07:29:22;14.10;71.80
2539;DHT22;1280;49.760;9.664;2023-04-24T07:31:52;14.10;71.80
2539;DHT22;1280;49.760;9.664;2023-04-24T07:34:33;14.10;71.70
2539;DHT22;1280;49.760;9.664;2023-04-24T07:37:06;14.10;71.60
2539;DHT22;1280;49.760;9.664;2023-04-24T07:39:36;14.20;71.50
2539;DHT22;1280;49.760;9.664;2023-04-24T07:42:12;14.20;71.30
2539;DHT22;1280;49.760;9.664;2023-04-24T07:44:43;14.20;71.20
2539;DHT22;1280;49.760;9.664;2023-04-24T07:47:15;14.20;71.10
2539;DHT22;1280;49.760;9.664;2023-04-24T07:49:51;14.10;71.10
2539;DHT22;1280;49.760;9.664;2023-04-24T07:52:25;14.10;71.00
2539;DHT22;1280;49.760;9.664;2023-04-24T07:54:57;14.10;70.90
2539;DHT22;1280;49.760;9.664;2023-04-24T07:57:35;14.10;70.90
2539;DHT22;1280;49.760;9.664;2023-04-24T08:00:05;14.10;70.70
2539;DHT22;1280;49.760;9.664;2023-04-24T08:02:38;14.00;70.60
2539;DHT22;1280;49.760;9.664;2023-04-24T08:05:13;14.00;70.60
2539;DHT22;1280;49.760;9.664;2023-04-24T08:07:45;14.00;70.40
2539;DHT22;1280;49.760;9.664;2023-04-24T08:10:20;14.00;70.30
2539;DHT22;1280;49.760;9.664;2023-04-24T08:12:50;13.90;70.30
2539;DHT22;1280;49.760;9.664;2023-04-24T08:15:28;13.90;70.50
2539;DHT22;1280;49.760;9.664;2023-04-24T08:17:58;13.90;70.30
2539;DHT22;1280;49.760;9.664;2023-04-24T08:20:30;13.90;70.20
2539;DHT22;1280;49.760;9.664;2023-04-24T08:23:06;13.90;70.30
2539;DHT22;1280;49.760;9.664;2023-04-24T08:25:37;13.90;70.30
2539;DHT22;1280;49.760;9.664;2023-04-24T08:28:09;13.80;70.40
2539;DHT22;1280;49.760;9.664;2023-04-24T08:30:43;13.80;70.30
2539;DHT22;1280;49.760;9.664;2023-04-24T08:33:16;13.70;70.40
2539;DHT22;1280;49.760;9.664;2023-04-24T08:35:56;13.80;70.50
2539;DHT22;1280;49.760;9.664;2023-04-24T08:38:24;13.80;70.60
2539;DHT22;1280;49.760;9.664;2023-04-24T08:41:08;13.80;70.60
2539;DHT22;1280;49.760;9.664;2023-04-24T08:43:40;13.80;70.60
2539;DHT22;1280;49.760;9.664;2023-04-24T08:46:14;13.80;70.70
2539;DHT22;1280;49.760;9.664;2023-04-24T08:48:46;13.90;70.70
2539;DHT22;1280;49.760;9.664;2023-04-24T08:51:17;13.90;70.60
2539;DHT22;1280;49.760;9.664;2023-04-24T08:53:53;13.90;70.60
2539;DHT22;1280;49.760;9.664;2023-04-24T08:56:28;13.90;70.60
2539;DHT22;1280;49.760;9.664;2023-04-24T08:58:58;13.90;70.60
2539;DHT22;1280;49.760;9.664;2023-04-24T09:01:37;14.00;70.40
2539;DHT22;1280;49.760;9.664;2023-04-24T09:04:11;14.00;70.60
2539;DHT22;1280;49.760;9.664;2023-04-24T09:06:48;14.00;70.40
2539;DHT22;1280;49.760;9.664;2023-04-24T09:09:22;14.00;70.40
2539;DHT22;1280;49.760;9.664;2023-04-24T09:12:01;14.10;70.40
2539;DHT22;1280;49.760;9.664;2023-04-24T09:14:31;14.10;70.40
2539;DHT22;1280;49.760;9.664;2023-04-24T09:17:13;14.10;70.30
2539;DHT22;1280;49.760;9.664;2023-04-24T09:19:41;14.20;70.30
2539;DHT22;1280;49.760;9.664;2023-04-24T09:22:22;14.20;70.20
2539;DHT22;1280;49.760;9.664;2023-04-24T09:25:02;14.20;70.20
2539;DHT22;1280;49.760;9.664;2023-04-24T09:27:42;14.30;70.10
2539;DHT22;1280;49.760;9.664;2023-04-24T09:30:13;14.30;69.80
2539;DHT22;1280;49.760;9.664;2023-04-24T09:32:46;14.30;69.70
2539;DHT22;1280;49.760;9.664;2023-04-24T09:35:26;14.30;69.70
2539;DHT22;1280;49.760;9.664;2023-04-24T09:37:57;14.30;69.70
2539;DHT22;1280;49.760;9.664;2023-04-24T09:40:28;14.30;69.60
2539;DHT22;1280;49.760;9.664;2023-04-24T09:43:02;14.40;69.40
2539;DHT22;1280;49.760;9.664;2023-04-24T09:45:38;14.40;69.30
2539;DHT22;1280;49.760;9.664;2023-04-24T09:48:10;14.40;69.30
2539;DHT22;1280;49.760;9.664;2023-04-24T09:50:40;14.40;69.20
2539;DHT22;1280;49.760;9.664;2023-04-24T09:53:25;14.40;69.20
2539;DHT22;1280;49.760;9.664;2023-04-24T09:55:54;14.50;69.20
2539;DHT22;1280;49.760;9.664;2023-04-24T09:58:29;14.50;69.30
2539;DHT22;1280;49.760;9.664;2023-04-24T10:01:00;14.60;69.20
2539;DHT22;1280;49.760;9.664;2023-04-24T10:03:31;14.70;68.90
2539;DHT22;1280;49.760;9.664;2023-04-24T10:06:12;14.70;68.80
2539;DHT22;1280;49.760;9.664;2023-04-24T10:08:43;14.80;68.80
2539;DHT22;1280;49.760;9.664;2023-04-24T10:11:20;14.80;68.70
2539;DHT22;1280;49.760;9.664;2023-04-24T10:14:00;14.90;68.50
2539;DHT22;1280;49.760;9.664;2023-04-24T10:16:35;14.90;68.20
2539;DHT22;1280;49.760;9.664;2023-04-24T10:19:10;14.80;68.20
2539;DHT22;1280;49.760;9.664;2023-04-24T10:21:44;14.80;68.00
2539;DHT22;1280;49.760;9.664;2023-04-24T10:24:14;14.80;67.90
2539;DHT22;1280;49.760;9.664;2023-04-24T10:26:49;14.80;67.70
2539;DHT22;1280;49.760;9.664;2023-04-24T10:29:26;14.70;67.30
2539;DHT22;1280;49.760;9.664;2023-04-24T10:31:56;14.70;67.00
2539;DHT22;1280;49.760;9.664;2023-04-24T10:34:26;14.60;66.90
2539;DHT22;1280;49.760;9.664;2023-04-24T10:36:58;14.50;66.90
2539;DHT22;1280;49.760;9.664;2023-04-24T10:39:33;14.50;66.90
2539;DHT22;1280;49.760;9.664;2023-04-24T10:42:15;14.40;66.80
2539;DHT22;1280;49.760;9.664;2023-04-24T10:44:49;14.30;67.00
2539;DHT22;1280;49.760;9.664;2023-04-24T10:47:22;14.30;67.00
2539;DHT22;1280;49.760;9.664;2023-04-24T10:49:52;14.30;66.90
2539;DHT22;1280;49.760;9.664;2023-04-24T10:52:44;14.30;67.00
2539;DHT22;1280;49.760;9.664;2023-04-24T10:55:41;14.30;66.80
2539;DHT22;1280;49.760;9.664;2023-04-24T10:58:17;14.20;66.40
2539;DHT22;1280;49.760;9.664;2023-04-24T11:01:00;14.20;66.70
2539;DHT22;1280;49.760;9.664;2023-04-24T11:03:36;14.30;66.70
2539;DHT22;1280;49.760;9.664;2023-04-24T11:06:07;14.20;66.60
2539;DHT22;1280;49.760;9.664;2023-04-24T11:08:47;14.20;66.70
2539;DHT22;1280;49.760;9.664;2023-04-24T11:11:19;14.20;66.80
2539;DHT22;1280;49.760;9.664;2023-04-24T11:14:09;14.20;66.80
2539;DHT22;1280;49.760;9.664;2023-04-24T11:16:52;14.20;66.80
2539;DHT22;1280;49.760;9.664;2023-04-24T11:19:26;14.20;66.70
2539;DHT22;1280;49.760;9.664;2023-04-24T11:22:01;14.20;66.80
2539;DHT22;1280;49.760;9.664;2023-04-24T11:24:48;14.20;66.80
2539;DHT22;1280;49.760;9.664;2023-04-24T11:27:31;14.10;66.70
2539;DHT22;1280;49.760;9.664;2023-04-24T11:30:05;14.10;66.70
2539;DHT22;1280;49.760;9.664;2023-04-24T11:32:38;14.10;66.70
2539;DHT22;1280;49.760;9.664;2023-04-24T11:35:15;14.10;66.70
2539;DHT22;1280;49.760;9.664;2023-04-24T11:37:45;14.10;66.70
2539;DHT22;1280;49.760;9.664;2023-04-24T11:40:22;14.10;66.70
2539;DHT22;1280;49.760;9.664;2023-04-24T11:42:55;14.10;66.70
2539;DHT22;1280;49.760;9.664;2023-04-24T11:45:35;14.10;66.90
2539;DHT22;1280;49.760;9.664;2023-04-24T11:48:10;14.10;67.20
2539;DHT22;1280;49.760;9.664;2023-04-24T11:50:39;14.10;67.40
2539;DHT22;1280;49.760;9.664;2023-04-24T11:53:25;14.20;67.70
2539;DHT22;1280;49.760;9.664;2023-04-24T11:55:54;14.30;67.80
2539;DHT22;1280;49.760;9.664;2023-04-24T11:58:27;14.40;67.60
2539;DHT22;1280;49.760;9.664;2023-04-24T12:00:59;14.50;67.60
2539;DHT22;1280;49.760;9.664;2023-04-24T12:03:39;14.60;67.50
2539;DHT22;1280;49.760;9.664;2023-04-24T12:06:13;14.60;67.30
2539;DHT22;1280;49.760;9.664;2023-04-24T12:08:47;14.60;67.30
2539;DHT22;1280;49.760;9.664;2023-04-24T12:11:19;14.60;67.30
2539;DHT22;1280;49.760;9.664;2023-04-24T12:13:47;14.60;67.20
2539;DHT22;1280;49.760;9.664;2023-04-24T12:16:18;14.60;67.00
2539;DHT22;1280;49.760;9.664;2023-04-24T12:18:52;14.60;67.00
2539;DHT22;1280;49.760;9.664;2023-04-24T12:21:30;14.70;66.80
2539;DHT22;1280;49.760;9.664;2023-04-24T12:24:01;14.70;66.80
2539;DHT22;1280;49.760;9.664;2023-04-24T12:26:35;14.80;66.60
2539;DHT22;1280;49.760;9.664;2023-04-24T12:29:03;14.80;66.70
2539;DHT22;1280;49.760;9.664;2023-04-24T12:31:34;14.80;66.50
2539;DHT22;1280;49.760;9.664;2023-04-24T12:34:19;14.80;66.40
2539;DHT22;1280;49.760;9.664;2023-04-24T12:36:52;14.80;66.50
2539;DHT22;1280;49.760;9.664;2023-04-24T12:39:22;14.90;66.40
2539;DHT22;1280;49.760;9.664;2023-04-24T12:41:55;14.90;66.50
2539;DHT22;1280;49.760;9.664;2023-04-24T12:44:31;14.90;66.30
2539;DHT22;1280;49.760;9.664;2023-04-24T12:47:01;14.90;66.20
2539;DHT22;1280;49.760;9.664;2023-04-24T12:49:36;14.90;66.10
2539;DHT22;1280;49.760;9.664;2023-04-24T12:52:05;14.90;66.10
2539;DHT22;1280;49.760;9.664;2023-04-24T12:54:44;14.80;66.10
2539;DHT22;1280;49.760;9.664;2023-04-24T12:57:13;14.90;66.10
2539;DHT22;1280;49.760;9.664;2023-04-24T12:59:43;14.80;65.90
2539;DHT22;1280;49.760;9.664;2023-04-24T13:02:16;14.70;65.70
2539;DHT22;1280;49.760;9.664;2023-04-24T13:04:57;14.60;65.80
2539;DHT22;1280;49.760;9.664;2023-04-24T13:07:27;14.60;65.90
2539;DHT22;1280;49.760;9.664;2023-04-24T13:09:57;14.60;66.00
2539;DHT22;1280;49.760;9.664;2023-04-24T13:12:30;14.60;66.00
2539;DHT22;1280;49.760;9.664;2023-04-24T13:15:03;14.60;66.00
2539;DHT22;1280;49.760;9.664;2023-04-24T13:17:39;14.60;66.00
2539;DHT22;1280;49.760;9.664;2023-04-24T13:20:12;14.70;66.20
2539;DHT22;1280;49.760;9.664;2023-04-24T13:22:44;14.70;66.20
2539;DHT22;1280;49.760;9.664;2023-04-24T13:25:14;14.80;66.20
2539;DHT22;1280;49.760;9.664;2023-04-24T13:27:49;14.80;66.10
2539;DHT22;1280;49.760;9.664;2023-04-24T13:30:20;14.90;66.20
2539;DHT22;1280;49.760;9.664;2023-04-24T13:32:55;14.90;66.20
2539;DHT22;1280;49.760;9.664;2023-04-24T13:35:30;15.00;66.10
2539;DHT22;1280;49.760;9.664;2023-04-24T13:38:04;15.00;66.10
2539;DHT22;1280;49.760;9.664;2023-04-24T13:40:43;15.00;66.00
2539;DHT22;1280;49.760;9.664;2023-04-24T13:43:16;15.00;65.90
2539;DHT22;1280;49.760;9.664;2023-04-24T13:45:50;14.80;65.90
2539;DHT22;1280;49.760;9.664;2023-04-24T13:48:25;14.60;66.00
2539;DHT22;1280;49.760;9.664;2023-04-24T13:51:03;14.40;66.40
2539;DHT22;1280;49.760;9.664;2023-04-24T13:53:34;14.20;66.90
2539;DHT22;1280;49.760;9.664;2023-04-24T13:56:10;14.20;67.10
2539;DHT22;1280;49.760;9.664;2023-04-24T13:58:41;14.10;67.40
2539;DHT22;1280;49.760;9.664;2023-04-24T14:01:24;14.00;67.70
2539;DHT22;1280;49.760;9.664;2023-04-24T14:03:58;13.90;68.00
2539;DHT22;1280;49.760;9.664;2023-04-24T14:06:36;13.90;68.30
2539;DHT22;1280;49.760;9.664;2023-04-24T14:09:06;13.90;68.90
2539;DHT22;1280;49.760;9.664;2023-04-24T14:11:38;14.00;69.20
2539;DHT22;1280;49.760;9.664;2023-04-24T14:14:14;14.10;69.40
2539;DHT22;1280;49.760;9.664;2023-04-24T14:16:45;14.20;69.70
2539;DHT22;1280;49.760;9.664;2023-04-24T14:19:17;14.20;69.90
2539;DHT22;1280;49.760;9.664;2023-04-24T14:21:57;14.30;70.10
2539;DHT22;1280;49.760;9.664;2023-04-24T14:24:28;14.40;70.40
2539;DHT22;1280;49.760;9.664;2023-04-24T14:27:00;14.50;70.40
2539;DHT22;1280;49.760;9.664;2023-04-24T14:29:38;14.60;70.50
2539;DHT22;1280;49.760;9.664;2023-04-24T14:32:10;14.70;70.30
2539;DHT22;1280;49.760;9.664;2023-04-24T14:34:41;14.70;70.20
2539;DHT22;1280;49.760;9.664;2023-04-24T14:37:18;14.70;70.10
2539;DHT22;1280;49.760;9.664;2023-04-24T14:39:49;14.80;69.90
2539;DHT22;1280;49.760;9.664;2023-04-24T14:42:51;14.80;69.80
2539;DHT22;1280;49.760;9.664;2023-04-24T14:45:20;14.80;69.70
2539;DHT22;1280;49.760;9.664;2023-04-24T14:47:50;14.80;69.60
2539;DHT22;1280;49.760;9.664;2023-04-24T14:50:21;14.80;69.30
2539;DHT22;1280;49.760;9.664;2023-04-24T14:53:06;14.90;69.00
2539;DHT22;1280;49.760;9.664;2023-04-24T14:55:38;15.00;68.90
2539;DHT22;1280;49.760;9.664;2023-04-24T14:58:12;14.90;68.60
2539;DHT22;1280;49.760;9.664;2023-04-24T15:00:45;15.00;68.40
2539;DHT22;1280;49.760;9.664;2023-04-24T15:03:19;14.90;68.20
2539;DHT22;1280;49.760;9.664;2023-04-24T15:05:52;15.00;68.00
2539;DHT22;1280;49.760;9.664;2023-04-24T15:08:28;14.80;67.70
2539;DHT22;1280;49.760;9.664;2023-04-24T15:11:15;14.80;67.50
2539;DHT22;1280;49.760;9.664;2023-04-24T15:13:51;14.80;67.20
2539;DHT22;1280;49.760;9.664;2023-04-24T15:16:26;14.80;67.30
2539;DHT22;1280;49.760;9.664;2023-04-24T15:19:02;14.80;67.10
2539;DHT22;1280;49.760;9.664;2023-04-24T15:21:37;14.80;67.00
2539;DHT22;1280;49.760;9.664;2023-04-24T15:24:12;14.70;66.80
2539;DHT22;1280;49.760;9.664;2023-04-24T15:26:44;14.70;66.80
2539;DHT22;1280;49.760;9.664;2023-04-24T15:29:14;14.70;66.70
2539;DHT22;1280;49.760;9.664;2023-04-24T15:31:44;14.70;66.60
2539;DHT22;1280;49.760;9.664;2023-04-24T15:34:16;14.70;66.50
2539;DHT22;1280;49.760;9.664;2023-04-24T15:36:52;14.70;66.50
2539;DHT22;1280;49.760;9.664;2023-04-24T15:39:26;14.70;66.20
2539;DHT22;1280;49.760;9.664;2023-04-24T15:42:01;14.70;66.30
2539;DHT22;1280;49.760;9.664;2023-04-24T15:44:34;14.80;66.20
2539;DHT22;1280;49.760;9.664;2023-04-24T15:47:06;14.80;66.30
2539;DHT22;1280;49.760;9.664;2023-04-24T15:49:49;14.80;66.30
2539;DHT22;1280;49.760;9.664;2023-04-24T15:52:22;14.80;66.40
2539;DHT22;1280;49.760;9.664;2023-04-24T15:55:02;14.80;66.40
2539;DHT22;1280;49.760;9.664;2023-04-24T15:57:35;14.80;66.40
2539;DHT22;1280;49.760;9.664;2023-04-24T16:00:09;14.80;66.40
2539;DHT22;1280;49.760;9.664;2023-04-24T16:02:38;14.80;66.40
2539;DHT22;1280;49.760;9.664;2023-04-24T16:05:10;14.90;66.40
2539;DHT22;1280;49.760;9.664;2023-04-24T16:07:43;14.90;66.20
2539;DHT22;1280;49.760;9.664;2023-04-24T16:10:20;14.80;66.20
2539;DHT22;1280;49.760;9.664;2023-04-24T16:12:52;14.80;66.20
2539;DHT22;1280;49.760;9.664;2023-04-24T16:15:36;14.80;66.10
2539;DHT22;1280;49.760;9.664;2023-04-24T16:18:16;14.70;66.10
2539;DHT22;1280;49.760;9.664;2023-04-24T16:21:00;14.60;66.10
2539;DHT22;1280;49.760;9.664;2023-04-24T16:23:28;14.60;66.10
2539;DHT22;1280;49.760;9.664;2023-04-24T16:26:02;14.60;66.20
2539;DHT22;1280;49.760;9.664;2023-04-24T16:28:42;14.60;66.20
2539;DHT22;1280;49.760;9.664;2023-04-24T16:31:18;14.60;66.10
2539;DHT22;1280;49.760;9.664;2023-04-24T16:33:50;14.50;66.20
2539;DHT22;1280;49.760;9.664;2023-04-24T16:36:20;14.50;66.20
2539;DHT22;1280;49.760;9.664;2023-04-24T16:38:52;14.50;66.10
2539;DHT22;1280;49.760;9.664;2023-04-24T16:41:26;14.50;66.10
2539;DHT22;1280;49.760;9.664;2023-04-24T16:44:06;14.50;66.30
2539;DHT22;1280;49.760;9.664;2023-04-24T16:46:38;14.70;66.30
2539;DHT22;1280;49.760;9.664;2023-04-24T16:49:18;14.80;66.20
2539;DHT22;1280;49.760;9.664;2023-04-24T16:51:52;14.80;66.20
2539;DHT22;1280;49.760;9.664;2023-04-24T16:54:30;14.90;66.10